createdAt,value
2023-03-28T00:02:43.670Z,2.83
2023-03-28T00:07:46.087Z,2.87
2023-03-28T00:12:48.585Z,3.80
2023-03-28T00:17:52.860Z,3.53
2023-03-28T00:22:55.240Z,3.50
2023-03-28T00:27:57.591Z,3.27
2023-03-28T00:32:59.905Z,3.27
2023-03-28T00:38:02.240Z,3.60
2023-03-28T00:43:04.744Z,3.20
2023-03-28T00:48:18.333Z,3.30
2023-03-28T00:53:26.735Z,3.93
2023-03-28T00:58:33.040Z,3.73
2023-03-28T01:03:35.952Z,3.97
2023-03-28T01:08:42.966Z,3.27
2023-03-28T01:13:49.215Z,4.13
2023-03-28T01:18:52.393Z,4.00
2023-03-28T01:24:11.659Z,3.70
2023-03-28T01:29:37.784Z,3.20
2023-03-28T01:35:07.449Z,3.13
2023-03-28T01:40:23.362Z,3.20
2023-03-28T01:45:54.528Z,3.13
2023-03-28T01:51:15.910Z,3.00
2023-03-28T01:56:24.900Z,2.93
2023-03-28T02:01:46.702Z,3.83
2023-03-28T02:06:51.308Z,3.90
2023-03-28T02:12:03.843Z,3.05
2023-03-28T02:17:22.177Z,2.90
2023-03-28T02:23:10.345Z,3.10
2023-03-28T02:28:32.916Z,2.60
2023-03-28T02:33:49.453Z,3.10
2023-03-28T02:39:10.759Z,2.87
2023-03-28T02:44:35.966Z,3.30
2023-03-28T02:49:52.834Z,2.93
2023-03-28T02:55:19.346Z,2.57
2023-03-28T03:00:51.521Z,3.27
2023-03-28T03:05:54.120Z,3.57
2023-03-28T03:10:56.824Z,2.80
2023-03-28T03:15:59.418Z,2.87
2023-03-28T03:21:02.069Z,2.97
2023-03-28T03:26:32.034Z,3.43
2023-03-28T03:31:37.360Z,4.23
2023-03-28T03:36:58.161Z,5.27
2023-03-28T03:42:00.749Z,4.97
2023-03-28T03:47:06.567Z,3.40
2023-03-28T03:52:15.454Z,4.50
2023-03-28T03:57:17.926Z,5.10
2023-03-28T04:02:20.990Z,4.10
2023-03-28T04:07:35.101Z,4.57
2023-03-28T04:12:38.982Z,3.60
2023-03-28T04:17:41.861Z,4.13
2023-03-28T04:22:55.030Z,4.63
2023-03-28T04:28:02.114Z,5.10
2023-03-28T04:33:08.553Z,5.50
2023-03-28T04:38:20.406Z,5.27
2023-03-28T04:43:30.787Z,5.87
2023-03-28T04:48:33.237Z,6.07
2023-03-28T04:53:38.099Z,5.50
2023-03-28T04:59:00.903Z,5.37
2023-03-28T05:04:44.564Z,5.93
2023-03-28T05:09:49.075Z,4.83
2023-03-28T05:14:51.541Z,5.60
2023-03-28T05:19:54.593Z,5.63
2023-03-28T05:24:59.580Z,6.37
2023-03-28T05:30:02.370Z,6.10
2023-03-28T05:35:08.987Z,6.80
2023-03-28T05:40:12.844Z,6.33
2023-03-28T05:45:17.991Z,5.33
2023-03-28T05:50:52.753Z,6.37
2023-03-28T05:55:56.966Z,8.53
2023-03-28T06:01:00.799Z,9.13
2023-03-28T06:06:08.928Z,9.07
2023-03-28T06:11:12.288Z,7.73
2023-03-28T06:16:30.047Z,8.37
2023-03-28T06:21:34.018Z,6.80
2023-03-28T06:26:41.205Z,6.97
2023-03-28T06:31:46.377Z,6.43
2023-03-28T06:36:48.817Z,6.27
2023-03-28T06:41:51.386Z,7.33
2023-03-28T06:46:59.390Z,6.83
2023-03-28T06:52:01.793Z,7.10
2023-03-28T06:57:05.630Z,8.03
2023-03-28T07:02:12.692Z,7.80
2023-03-28T07:07:16.454Z,7.77
2023-03-28T07:12:19.379Z,6.33
2023-03-28T07:17:25.933Z,6.33
2023-03-28T07:22:28.903Z,5.87
2023-03-28T07:27:31.467Z,5.10
2023-03-28T07:32:47.478Z,4.70
2023-03-28T07:37:56.157Z,4.80
2023-03-28T07:43:09.254Z,4.43
2023-03-28T07:48:11.678Z,3.93
2023-03-28T07:53:14.170Z,5.03
2023-03-28T07:58:17.228Z,3.57
2023-03-28T08:03:23.957Z,4.27
2023-03-28T08:08:27.037Z,4.30
2023-03-28T08:13:55.560Z,3.87
2023-03-28T08:19:09.950Z,3.80
2023-03-28T08:24:35.833Z,3.50
2023-03-28T08:29:50.974Z,3.40
2023-03-28T08:34:53.541Z,3.37
2023-03-28T08:39:57.668Z,3.17
2023-03-28T08:45:25.017Z,4.03
2023-03-28T08:50:37.757Z,3.70
2023-03-28T08:55:43.655Z,3.63
2023-03-28T09:00:46.852Z,3.13
2023-03-28T09:05:55.217Z,2.93
2023-03-28T09:11:03.909Z,3.38
2023-03-28T09:16:32.822Z,3.50
2023-03-28T09:22:50.064Z,2.67
2023-03-28T09:28:19.076Z,3.50
2023-03-28T09:33:31.738Z,3.47
2023-03-28T09:38:38.438Z,3.13
2023-03-28T09:43:50.582Z,2.57
2023-03-28T09:54:23.959Z,2.67
2023-03-28T09:59:31.336Z,3.47
2023-03-28T10:04:40.177Z,1.97
2023-03-28T10:09:59.206Z,3.63
2023-03-28T10:15:02.896Z,3.67
2023-03-28T10:20:25.399Z,3.03
2023-03-28T10:25:40.514Z,2.77
2023-03-28T10:30:44.695Z,2.70
2023-03-28T10:36:00.852Z,3.33
2023-03-28T10:41:10.148Z,4.07
2023-03-28T10:46:45.879Z,2.93
2023-03-28T10:51:54.061Z,3.13
2023-03-28T10:57:09.139Z,3.67
2023-03-28T11:02:30.855Z,3.27
2023-03-28T11:07:42.757Z,3.80
2023-03-28T11:13:23.084Z,4.03
2023-03-28T11:18:41.233Z,3.80
2023-03-28T11:24:36.030Z,4.20
2023-03-28T11:30:16.071Z,4.20
2023-03-28T11:35:31.932Z,4.80
2023-03-28T11:41:13.649Z,3.97
2023-03-28T11:46:41.074Z,2.67
2023-03-28T11:51:53.595Z,3.13
2023-03-28T11:57:20.100Z,3.07
2023-03-28T12:02:44.813Z,2.22
2023-03-28T12:08:13.565Z,2.50
2023-03-28T12:13:46.756Z,2.20
2023-03-28T12:18:58.971Z,2.40
2023-03-28T12:24:36.284Z,2.27
2023-03-28T12:29:57.398Z,2.63
2023-03-28T12:35:05.444Z,3.00
2023-03-28T12:40:55.261Z,2.97
2023-03-28T12:46:02.752Z,3.07
2023-03-28T12:51:16.778Z,2.87
2023-03-28T12:56:22.101Z,3.10
2023-03-28T13:01:29.729Z,3.63
2023-03-28T13:06:53.241Z,2.57
2023-03-28T13:12:03.573Z,3.17
2023-03-28T13:17:21.993Z,3.30
2023-03-28T13:22:35.274Z,3.23
2023-03-28T13:27:37.728Z,3.93
2023-03-28T13:32:46.338Z,3.90
2023-03-28T13:37:48.785Z,4.60
2023-03-28T13:43:00.615Z,4.57
2023-03-28T13:48:13.195Z,4.33
2023-03-28T13:53:16.343Z,4.63
2023-03-28T13:58:19.263Z,3.87
2023-03-28T14:03:21.699Z,4.70
2023-03-28T14:08:26.106Z,5.20
2023-03-28T14:13:30.799Z,3.60
2023-03-28T14:18:41.358Z,4.40
2023-03-28T14:23:56.364Z,5.80
2023-03-28T14:29:07.679Z,5.13
2023-03-28T14:34:27.627Z,4.93
2023-03-28T14:39:32.620Z,5.87
2023-03-28T14:44:41.876Z,5.40
2023-03-28T14:49:46.069Z,4.43
2023-03-28T14:54:49.329Z,3.73
2023-03-28T14:59:52.769Z,4.10
2023-03-28T15:04:57.433Z,4.93
2023-03-28T15:10:09.747Z,3.63
2023-03-28T15:15:25.699Z,3.30
2023-03-28T15:20:33.903Z,3.70
2023-03-28T15:25:38.983Z,2.70
2023-03-28T15:30:44.052Z,3.20
2023-03-28T15:35:47.276Z,3.90
2023-03-28T15:40:51.721Z,3.03
2023-03-28T15:45:59.913Z,3.13
2023-03-28T15:51:08.733Z,2.77
2023-03-28T15:56:23.131Z,2.87
2023-03-28T16:01:31.510Z,3.17
2023-03-28T16:06:42.212Z,2.88
2023-03-28T16:11:49.996Z,2.83
2023-03-28T16:17:16.005Z,4.87
2023-03-28T16:22:29.436Z,3.43
2023-03-28T16:27:32.716Z,3.10
2023-03-28T16:32:35.035Z,3.80
2023-03-28T16:37:37.600Z,7.37
2023-03-28T16:42:39.964Z,3.60
2023-03-28T16:47:42.480Z,3.40
2023-03-28T16:52:44.803Z,4.30
2023-03-28T16:57:47.281Z,3.30
2023-03-28T17:02:51.244Z,4.00
2023-03-28T17:07:53.528Z,3.97
2023-03-28T17:12:57.126Z,4.47
2023-03-28T17:18:01.420Z,4.07
2023-03-28T17:23:04.352Z,5.20
2023-03-28T17:28:06.838Z,4.43
2023-03-28T17:33:09.579Z,4.03
2023-03-28T17:38:12.306Z,3.43
2023-03-28T17:43:14.757Z,3.47
2023-03-28T17:48:17.738Z,3.20
2023-03-28T17:53:20.205Z,2.93
2023-03-28T17:58:22.711Z,2.80
2023-03-28T18:03:25.149Z,3.20
2023-03-28T18:08:40.323Z,2.77
2023-03-28T18:13:43.086Z,2.50
2023-03-28T18:18:45.591Z,2.57
2023-03-28T18:23:48.924Z,2.30
2023-03-28T18:28:51.379Z,2.40
2023-03-28T18:33:54.836Z,2.70
2023-03-28T18:38:59.748Z,2.77
2023-03-28T18:44:02.335Z,3.00
2023-03-28T18:49:05.937Z,2.60
2023-03-28T18:54:08.397Z,2.80
2023-03-28T18:59:11.480Z,2.70
2023-03-28T19:04:13.977Z,2.90
2023-03-28T19:09:16.773Z,3.20
2023-03-28T19:14:19.162Z,3.10
2023-03-28T19:19:21.613Z,2.60
2023-03-28T19:24:24.120Z,3.07
2023-03-28T19:29:27.833Z,2.90
2023-03-28T19:34:30.244Z,3.07
2023-03-28T19:39:32.587Z,2.93
2023-03-28T19:44:34.945Z,3.30
2023-03-28T19:49:39.942Z,2.83
2023-03-28T19:54:42.318Z,3.20
2023-03-28T19:59:44.622Z,2.63
2023-03-28T20:04:46.975Z,3.27
2023-03-28T20:09:49.660Z,3.07
2023-03-28T20:14:51.980Z,3.60
2023-03-28T20:19:54.522Z,3.20
2023-03-28T20:24:57.253Z,3.43
2023-03-28T20:29:59.608Z,3.23
2023-03-28T20:35:02.153Z,4.33
2023-03-28T20:40:05.984Z,3.90
2023-03-28T20:45:09.461Z,3.80
2023-03-28T20:50:12.004Z,4.23
2023-03-28T20:55:15.311Z,3.70
2023-03-28T21:00:18.369Z,3.90
2023-03-28T21:05:22.388Z,3.90
2023-03-28T21:10:24.835Z,4.10
2023-03-28T21:15:29.382Z,3.33
2023-03-28T21:20:31.746Z,3.67
2023-03-28T21:25:34.175Z,3.33
2023-03-28T21:30:37.508Z,3.33
2023-03-28T21:35:42.831Z,3.87
2023-03-28T21:40:46.975Z,3.20
2023-03-28T21:45:49.715Z,4.17
2023-03-28T21:50:54.097Z,3.70
2023-03-28T21:55:57.081Z,4.20
2023-03-28T22:01:00.650Z,3.57
2023-03-28T22:06:03.315Z,3.87
2023-03-28T22:11:13.719Z,3.60
2023-03-28T22:16:16.562Z,3.77
2023-03-28T22:21:18.889Z,4.00
2023-03-28T22:26:21.473Z,4.00
2023-03-28T22:31:25.607Z,3.47
2023-03-28T22:36:28.055Z,3.73
2023-03-28T22:41:32.178Z,3.60
2023-03-28T22:46:34.536Z,3.37
2023-03-28T22:51:46.424Z,3.50
2023-03-28T22:56:50.043Z,4.33
2023-03-28T23:01:52.573Z,4.57
2023-03-28T23:06:55.406Z,4.83
2023-03-28T23:11:57.798Z,3.97
2023-03-28T23:17:02.648Z,3.70
2023-03-28T23:22:07.789Z,4.40
2023-03-28T23:27:10.189Z,4.27
2023-03-28T23:32:12.482Z,4.70
2023-03-28T23:37:14.836Z,4.10
2023-03-28T23:42:17.080Z,4.47
2023-03-28T23:47:20.794Z,4.17
2023-03-28T23:52:23.103Z,4.07
2023-03-28T23:57:25.544Z,3.60
